createdAt,value
2023-02-11T00:00:33.795Z,101645.03
2023-02-11T00:03:01.047Z,101652.78
2023-02-11T00:05:29.569Z,101648.03
2023-02-11T00:07:57.172Z,101653.22
2023-02-11T00:10:24.355Z,101647.56
2023-02-11T00:12:51.544Z,101643.06
2023-02-11T00:15:18.708Z,101642.19
2023-02-11T00:17:45.856Z,101646.50
2023-02-11T00:20:13.048Z,101645.56
2023-02-11T00:22:41.641Z,101624.81
2023-02-11T00:25:08.815Z,101632.81
2023-02-11T00:27:36.655Z,101637.13
2023-02-11T00:30:04.468Z,101634.53
2023-02-11T00:32:31.657Z,101638.38
2023-02-11T00:34:58.842Z,101650.13
2023-02-11T00:37:26.075Z,101628.56
2023-02-11T00:39:54.824Z,101631.28
2023-02-11T00:42:22.007Z,101627.41
2023-02-11T00:44:49.191Z,101634.28
2023-02-11T00:47:17.425Z,101630.34
2023-02-11T00:49:44.634Z,101626.72
2023-02-11T00:52:11.788Z,101616.44
2023-02-11T00:54:38.962Z,101624.38
2023-02-11T00:57:08.618Z,101624.94
2023-02-11T00:59:35.966Z,101617.63
2023-02-11T01:02:03.388Z,101623.50
2023-02-11T01:04:30.585Z,101623.09
2023-02-11T01:06:57.797Z,101621.94
2023-02-11T01:09:26.052Z,101616.22
2023-02-11T01:11:53.254Z,101607.94
2023-02-11T01:14:21.794Z,101607.53
2023-02-11T01:16:51.616Z,101605.31
2023-02-11T01:19:20.621Z,101597.88
2023-02-11T01:21:47.842Z,101594.78
2023-02-11T01:24:15.047Z,101598.94
2023-02-11T01:26:44.707Z,101594.16
2023-02-11T01:29:11.849Z,101592.41
2023-02-11T01:31:40.538Z,101586.19
2023-02-11T01:34:07.761Z,101581.81
2023-02-11T01:36:37.333Z,101585.53
2023-02-11T01:39:04.557Z,101578.38
2023-02-11T01:41:31.952Z,101577.53
2023-02-11T01:43:59.325Z,101575.75
2023-02-11T01:46:31.722Z,101577.47
2023-02-11T01:49:04.627Z,101567.63
2023-02-11T01:51:37.333Z,101566.56
2023-02-11T01:54:07.078Z,101557.78
2023-02-11T01:56:37.130Z,101559.75
2023-02-11T01:59:11.165Z,101548.25
2023-02-11T02:01:41.514Z,101551.69
2023-02-11T02:04:11.463Z,101541.28
2023-02-11T02:06:46.040Z,101544.91
2023-02-11T02:09:21.326Z,101535.13
2023-02-11T02:11:48.867Z,101538.66
2023-02-11T02:14:16.097Z,101528.59
2023-02-11T02:16:44.564Z,101523.06
2023-02-11T02:19:47.590Z,101528.31
2023-02-11T02:22:42.969Z,101523.53
2023-02-11T02:25:27.612Z,101544.66
2023-02-11T02:28:06.908Z,101547.13
2023-02-11T02:31:00.984Z,101555.84
2023-02-11T02:33:37.459Z,101541.41
2023-02-11T02:36:14.297Z,101544.91
2023-02-11T02:38:48.585Z,101546.44
2023-02-11T02:41:19.137Z,101547.22
2023-02-11T02:43:48.994Z,101547.06
2023-02-11T02:46:18.520Z,101541.47
2023-02-11T02:48:48.373Z,101543.50
2023-02-11T02:51:36.138Z,101540.56
2023-02-11T02:54:23.650Z,101541.56
2023-02-11T02:56:56.062Z,101539.03
2023-02-11T02:59:41.123Z,101540.81
2023-02-11T03:02:17.751Z,101547.16
2023-02-11T03:04:52.465Z,101538.19
2023-02-11T03:07:25.430Z,101529.22
2023-02-11T03:09:59.233Z,101524.69
2023-02-11T03:12:29.911Z,101532.13
2023-02-11T03:14:59.247Z,101525.59
2023-02-11T03:17:28.458Z,101525.34
2023-02-11T03:19:58.391Z,101511.91
2023-02-11T03:22:30.639Z,101514.38
2023-02-11T03:24:57.921Z,101492.00
2023-02-11T03:27:28.808Z,101488.22
2023-02-11T03:30:05.295Z,101479.38
2023-02-11T03:32:36.618Z,101474.72
2023-02-11T03:35:11.588Z,101474.91
2023-02-11T03:37:43.185Z,101474.00
2023-02-11T03:40:13.531Z,101475.75
2023-02-11T03:42:45.818Z,101460.72
2023-02-11T03:45:17.840Z,101460.84
2023-02-11T03:47:50.178Z,101462.69
2023-02-11T03:50:20.862Z,101452.66
2023-02-11T03:52:50.145Z,101449.19
2023-02-11T03:55:20.602Z,101457.06
2023-02-11T03:57:47.938Z,101455.91
2023-02-11T04:00:15.765Z,101458.53
2023-02-11T04:02:43.372Z,101463.91
2023-02-11T04:05:13.673Z,101466.44
2023-02-11T04:07:42.167Z,101478.78
2023-02-11T04:10:11.278Z,101484.16
2023-02-11T04:12:38.458Z,101481.47
2023-02-11T04:15:06.496Z,101476.94
2023-02-11T04:17:33.738Z,101483.28
2023-02-11T04:20:00.983Z,101493.00
2023-02-11T04:22:28.149Z,101486.72
2023-02-11T04:24:56.870Z,101482.19
2023-02-11T04:27:24.012Z,101478.03
2023-02-11T04:29:51.310Z,101474.25
2023-02-11T04:32:18.514Z,101475.00
2023-02-11T04:34:45.669Z,101476.75
2023-02-11T04:37:13.058Z,101475.72
2023-02-11T04:39:40.310Z,101470.19
2023-02-11T04:42:08.889Z,101471.03
2023-02-11T04:44:36.066Z,101470.91
2023-02-11T04:47:03.504Z,101460.97
2023-02-11T04:49:30.947Z,101457.09
2023-02-11T04:51:58.103Z,101454.41
2023-02-11T04:54:25.298Z,101451.53
2023-02-11T04:56:52.404Z,101469.34
2023-02-11T04:59:20.944Z,101456.78
2023-02-11T05:01:48.112Z,101459.31
2023-02-11T05:04:15.346Z,101468.41
2023-02-11T05:06:42.537Z,101466.00
2023-02-11T05:09:11.624Z,101483.56
2023-02-11T05:11:38.911Z,101488.13
2023-02-11T05:14:06.565Z,101469.03
2023-02-11T05:16:35.190Z,101477.94
2023-02-11T05:19:02.416Z,101479.78
2023-02-11T05:21:29.828Z,101478.97
2023-02-11T05:23:57.061Z,101474.47
2023-02-11T05:26:24.604Z,101455.72
2023-02-11T05:28:51.872Z,101453.03
2023-02-11T05:31:19.118Z,101442.06
2023-02-11T05:33:47.733Z,101439.38
2023-02-11T05:36:14.936Z,101442.91
2023-02-11T05:38:42.882Z,101446.41
2023-02-11T05:41:10.968Z,101452.56
2023-02-11T05:43:38.456Z,101448.22
2023-02-11T05:46:05.966Z,101449.81
2023-02-11T05:48:33.259Z,101456.28
2023-02-11T05:51:01.779Z,101463.19
2023-02-11T05:53:28.997Z,101461.59
2023-02-11T05:55:56.133Z,101465.22
2023-02-11T05:58:23.331Z,101454.47
2023-02-11T06:00:50.442Z,101444.56
2023-02-11T06:03:17.620Z,101439.19
2023-02-11T06:05:44.963Z,101447.13
2023-02-11T06:08:13.453Z,101447.13
2023-02-11T06:10:40.642Z,101456.13
2023-02-11T06:13:07.918Z,101463.38
2023-02-11T06:15:35.059Z,101461.59
2023-02-11T06:18:02.289Z,101450.91
2023-02-11T06:20:29.469Z,101453.03
2023-02-11T06:22:56.681Z,101465.03
2023-02-11T06:25:25.220Z,101459.34
2023-02-11T06:27:52.378Z,101457.50
2023-02-11T06:30:19.636Z,101452.59
2023-02-11T06:32:47.058Z,101454.50
2023-02-11T06:35:14.618Z,101451.06
2023-02-11T06:37:42.185Z,101448.63
2023-02-11T06:40:10.381Z,101443.25
2023-02-11T06:42:39.471Z,101441.97
2023-02-11T06:45:07.950Z,101446.44
2023-02-11T06:47:35.324Z,101440.88
2023-02-11T06:50:02.814Z,101445.34
2023-02-11T06:52:29.979Z,101462.94
2023-02-11T06:54:57.175Z,101451.09
2023-02-11T06:57:24.317Z,101451.16
2023-02-11T06:59:52.950Z,101447.31
2023-02-11T07:02:21.157Z,101449.84
2023-02-11T07:04:48.733Z,101455.22
2023-02-11T07:07:15.938Z,101452.31
2023-02-11T07:09:43.354Z,101460.22
2023-02-11T07:12:10.748Z,101464.34
2023-02-11T07:14:37.967Z,101464.34
2023-02-11T07:17:06.492Z,101465.78
2023-02-11T07:19:33.651Z,101471.00
2023-02-11T07:22:00.831Z,101470.69
2023-02-11T07:24:27.998Z,101467.75
2023-02-11T07:26:55.140Z,101469.25
2023-02-11T07:29:22.334Z,101476.06
2023-02-11T07:31:49.629Z,101481.22
2023-02-11T07:34:18.211Z,101478.06
2023-02-11T07:36:45.407Z,101482.94
2023-02-11T07:39:12.578Z,101482.72
2023-02-11T07:41:39.740Z,101479.63
2023-02-11T07:44:07.432Z,101488.25
2023-02-11T07:46:34.698Z,101488.84
2023-02-11T07:49:01.946Z,101491.25
2023-02-11T07:51:31.219Z,101485.59
2023-02-11T07:54:00.007Z,101501.50
2023-02-11T07:56:28.373Z,101504.91
2023-02-11T07:58:56.350Z,101514.31
2023-02-11T08:01:25.663Z,101516.94
2023-02-11T08:03:53.196Z,101525.63
2023-02-11T08:06:22.540Z,101521.47
2023-02-11T08:08:51.717Z,101523.75
2023-02-11T08:11:22.538Z,101522.78
2023-02-11T08:13:50.011Z,101524.28
2023-02-11T08:16:19.641Z,101525.59
2023-02-11T08:18:47.520Z,101526.03
2023-02-11T08:21:14.719Z,101533.50
2023-02-11T08:23:44.001Z,101532.06
2023-02-11T08:26:18.420Z,101539.63
2023-02-11T08:28:47.246Z,101534.28
2023-02-11T08:31:16.484Z,101533.50
2023-02-11T08:33:43.864Z,101544.63
2023-02-11T08:36:12.878Z,101541.50
2023-02-11T08:38:40.497Z,101548.25
2023-02-11T08:41:08.065Z,101543.72
2023-02-11T08:43:37.490Z,101535.38
2023-02-11T08:46:05.107Z,101535.19
2023-02-11T08:48:32.382Z,101535.03
2023-02-11T08:50:59.639Z,101543.03
2023-02-11T08:53:26.941Z,101550.19
2023-02-11T08:55:55.322Z,101549.25
2023-02-11T08:58:22.845Z,101550.13
2023-02-11T09:00:51.712Z,101550.44
2023-02-11T09:03:18.987Z,101546.06
2023-02-11T09:05:48.291Z,101546.47
2023-02-11T09:08:16.172Z,101548.56
2023-02-11T09:10:43.385Z,101548.84
2023-02-11T09:13:10.629Z,101545.03
2023-02-11T09:15:37.876Z,101551.81
2023-02-11T09:18:06.442Z,101538.94
2023-02-11T09:20:33.592Z,101544.34
2023-02-11T09:23:00.744Z,101547.13
2023-02-11T09:25:27.893Z,101544.19
2023-02-11T09:27:55.066Z,101557.94
2023-02-11T09:30:22.487Z,101546.66
2023-02-11T09:32:49.634Z,101559.03
2023-02-11T09:35:18.254Z,101569.38
2023-02-11T09:37:45.407Z,101566.41
2023-02-11T09:40:14.292Z,101559.75
2023-02-11T09:42:46.958Z,101562.00
2023-02-11T09:45:19.338Z,101576.72
2023-02-11T09:47:50.808Z,101567.34
2023-02-11T09:50:23.666Z,101568.41
2023-02-11T09:52:56.654Z,101570.09
2023-02-11T09:55:28.608Z,101569.00
2023-02-11T09:57:56.713Z,101570.19
2023-02-11T10:00:28.342Z,101575.25
2023-02-11T10:03:08.633Z,101563.25
2023-02-11T10:05:50.912Z,101568.16
2023-02-11T10:08:27.983Z,101557.75
2023-02-11T10:11:04.023Z,101554.06
2023-02-11T10:13:47.743Z,101560.28
2023-02-11T10:16:29.630Z,101561.63
2023-02-11T10:19:13.169Z,101565.31
2023-02-11T10:21:51.477Z,101560.88
2023-02-11T10:24:19.138Z,101564.38
2023-02-11T10:26:46.646Z,101573.88
2023-02-11T10:29:27.533Z,101579.44
2023-02-11T10:31:57.254Z,101578.25
2023-02-11T10:34:25.416Z,101576.78
2023-02-11T10:36:53.931Z,101571.88
2023-02-11T10:39:23.169Z,101584.25
2023-02-11T10:41:53.770Z,101577.97
2023-02-11T10:44:26.337Z,101579.69
2023-02-11T10:46:54.491Z,101567.63
2023-02-11T10:49:35.179Z,101570.44
2023-02-11T10:52:15.970Z,101575.03
2023-02-11T10:54:55.897Z,101569.03
2023-02-11T10:57:28.103Z,101574.75
2023-02-11T10:59:59.403Z,101577.66
2023-02-11T11:02:29.894Z,101581.91
2023-02-11T11:04:58.704Z,101577.31
2023-02-11T11:07:29.465Z,101576.56
2023-02-11T11:10:00.002Z,101579.94
2023-02-11T11:12:31.127Z,101569.50
2023-02-11T11:15:01.020Z,101560.78
2023-02-11T11:17:28.610Z,101550.16
2023-02-11T11:20:14.409Z,101562.66
2023-02-11T11:22:43.576Z,101561.81
2023-02-11T11:25:22.268Z,101553.44
2023-02-11T11:27:49.685Z,101565.81
2023-02-11T11:30:17.430Z,101563.31
2023-02-11T11:32:45.144Z,101567.13
2023-02-11T11:35:24.080Z,101560.53
2023-02-11T11:37:56.720Z,101561.28
2023-02-11T11:40:25.845Z,101561.25
2023-02-11T11:43:15.187Z,101555.19
2023-02-11T11:45:54.055Z,101546.63
2023-02-11T11:48:24.936Z,101549.00
2023-02-11T11:50:54.742Z,101546.81
2023-02-11T11:53:29.051Z,101554.84
2023-02-11T11:56:02.870Z,101552.91
2023-02-11T11:58:31.893Z,101560.50
2023-02-11T12:01:10.291Z,101553.56
2023-02-11T12:04:10.822Z,101557.03
2023-02-11T12:06:44.904Z,101558.56
2023-02-11T12:09:23.343Z,101555.59
2023-02-11T12:12:20.161Z,101556.47
2023-02-11T12:14:59.703Z,101560.38
2023-02-11T12:17:49.020Z,101554.53
2023-02-11T12:20:31.854Z,101558.75
2023-02-11T12:23:12.837Z,101558.13
2023-02-11T12:25:46.403Z,101554.59
2023-02-11T12:28:27.235Z,101563.34
2023-02-11T12:31:06.409Z,101551.63
2023-02-11T12:34:12.138Z,101550.00
2023-02-11T12:36:52.153Z,101552.41
2023-02-11T12:39:32.468Z,101548.97
2023-02-11T12:42:24.377Z,101547.78
2023-02-11T12:45:07.558Z,101535.31
2023-02-11T12:47:47.237Z,101530.53
2023-02-11T12:50:22.319Z,101535.69
2023-02-11T12:53:02.578Z,101528.50
2023-02-11T12:55:35.854Z,101532.50
2023-02-11T12:58:05.254Z,101530.53
2023-02-11T13:00:43.284Z,101532.81
2023-02-11T13:03:14.975Z,101517.34
2023-02-11T13:05:46.779Z,101531.00
2023-02-11T13:08:15.499Z,101525.91
2023-02-11T13:10:47.257Z,101523.59
2023-02-11T13:13:19.078Z,101524.59
2023-02-11T13:15:50.883Z,101513.88
2023-02-11T13:18:29.258Z,101517.19
2023-02-11T13:21:08.855Z,101521.25
2023-02-11T13:23:41.559Z,101523.41
2023-02-11T13:26:16.324Z,101518.94
2023-02-11T13:28:51.738Z,101518.75
2023-02-11T13:31:19.280Z,101512.84
2023-02-11T13:33:46.901Z,101520.34
2023-02-11T13:36:23.114Z,101520.34
2023-02-11T13:39:03.055Z,101534.44
2023-02-11T13:41:33.244Z,101527.94
2023-02-11T13:44:05.955Z,101531.84
2023-02-11T13:46:55.307Z,101529.44
2023-02-11T13:49:25.632Z,101529.13
2023-02-11T13:51:54.338Z,101525.56
2023-02-11T13:54:26.394Z,101531.72
2023-02-11T13:57:35.012Z,101529.34
2023-02-11T14:00:30.665Z,101537.25
2023-02-11T14:03:28.780Z,101532.94
2023-02-11T14:06:12.823Z,101526.19
2023-02-11T14:08:59.397Z,101525.75
2023-02-11T14:11:48.695Z,101522.84
2023-02-11T14:14:26.090Z,101530.97
2023-02-11T14:17:18.653Z,101531.19
2023-02-11T14:19:47.712Z,101531.63
2023-02-11T14:22:18.093Z,101533.03
2023-02-11T14:24:49.269Z,101543.56
2023-02-11T14:27:23.737Z,101533.81
2023-02-11T14:30:07.933Z,101537.91
2023-02-11T14:32:51.355Z,101542.38
2023-02-11T14:35:27.557Z,101548.16
2023-02-11T14:38:02.255Z,101544.88
2023-02-11T14:40:33.897Z,101539.59
2023-02-11T14:43:08.082Z,101546.53
2023-02-11T14:45:36.764Z,101550.44
2023-02-11T14:48:14.162Z,101555.72
2023-02-11T14:50:45.387Z,101562.78
2023-02-11T14:53:16.265Z,101564.06
2023-02-11T14:55:47.708Z,101565.81
2023-02-11T14:58:17.613Z,101563.72
2023-02-11T15:00:50.508Z,101563.63
2023-02-11T15:03:34.176Z,101567.19
2023-02-11T15:06:05.052Z,101573.69
2023-02-11T15:08:35.818Z,101566.44
2023-02-11T15:11:08.024Z,101564.13
2023-02-11T15:13:35.351Z,101560.88
2023-02-11T15:16:07.015Z,101567.81
2023-02-11T15:18:40.292Z,101570.28
2023-02-11T15:21:08.245Z,101579.00
2023-02-11T15:23:35.810Z,101578.13
2023-02-11T15:26:12.038Z,101579.09
2023-02-11T15:28:39.351Z,101586.88
2023-02-11T15:31:14.914Z,101578.41
2023-02-11T15:33:43.589Z,101573.97
2023-02-11T15:36:12.138Z,101575.03
2023-02-11T15:38:39.430Z,101570.59
2023-02-11T15:41:07.229Z,101575.03
2023-02-11T15:43:42.248Z,101572.44
2023-02-11T15:46:12.960Z,101568.06
2023-02-11T15:48:45.249Z,101567.78
2023-02-11T15:51:20.152Z,101568.59
2023-02-11T15:53:50.279Z,101563.81
2023-02-11T15:56:22.373Z,101560.13
2023-02-11T15:58:51.811Z,101558.97
2023-02-11T16:01:19.658Z,101554.91
2023-02-11T16:03:50.547Z,101561.66
2023-02-11T16:06:20.776Z,101556.44
2023-02-11T16:08:59.808Z,101559.38
2023-02-11T16:11:29.212Z,101567.19
2023-02-11T16:13:56.979Z,101558.69
2023-02-11T16:16:26.416Z,101562.09
2023-02-11T16:19:05.792Z,101567.69
2023-02-11T16:21:35.510Z,101571.94
2023-02-11T16:24:03.078Z,101568.59
2023-02-11T16:26:34.425Z,101575.72
2023-02-11T16:29:11.662Z,101577.47
2023-02-11T16:31:42.142Z,101571.38
2023-02-11T16:34:16.650Z,101578.63
2023-02-11T16:36:44.519Z,101580.78
2023-02-11T16:39:11.859Z,101565.91
2023-02-11T16:41:39.022Z,101572.72
2023-02-11T16:44:06.235Z,101579.00
2023-02-11T16:46:34.061Z,101580.84
2023-02-11T16:49:09.745Z,101580.84
2023-02-11T16:51:40.875Z,101581.13
2023-02-11T16:54:13.588Z,101585.91
2023-02-11T16:56:40.773Z,101577.88
2023-02-11T16:59:08.011Z,101586.75
2023-02-11T17:01:35.705Z,101589.63
2023-02-11T17:04:03.325Z,101596.44
2023-02-11T17:06:30.989Z,101587.34
2023-02-11T17:08:59.872Z,101590.25
2023-02-11T17:11:27.091Z,101594.13
2023-02-11T17:13:54.228Z,101605.63
2023-02-11T17:16:23.092Z,101613.97
2023-02-11T17:18:50.716Z,101612.69
2023-02-11T17:21:18.644Z,101624.59
2023-02-11T17:23:45.853Z,101625.25
2023-02-11T17:26:14.383Z,101617.53
2023-02-11T17:28:41.517Z,101622.16
2023-02-11T17:31:09.144Z,101616.56
2023-02-11T17:33:36.825Z,101621.78
2023-02-11T17:36:05.549Z,101623.44
2023-02-11T17:38:33.200Z,101621.56
2023-02-11T17:41:01.560Z,101619.56
2023-02-11T17:43:30.817Z,101630.19
2023-02-11T17:45:58.484Z,101629.03
2023-02-11T17:48:25.716Z,101623.50
2023-02-11T17:50:52.884Z,101638.00
2023-02-11T17:53:20.049Z,101645.38
2023-02-11T17:55:47.177Z,101643.41
2023-02-11T17:58:14.443Z,101644.28
2023-02-11T18:00:42.998Z,101648.72
2023-02-11T18:03:10.216Z,101652.41
2023-02-11T18:05:37.813Z,101647.84
2023-02-11T18:08:07.055Z,101649.63
2023-02-11T18:10:34.400Z,101661.28
2023-02-11T18:13:01.739Z,101655.88
2023-02-11T18:15:29.023Z,101642.66
2023-02-11T18:17:57.556Z,101650.88
2023-02-11T18:20:24.733Z,101649.31
2023-02-11T18:22:51.880Z,101649.50
2023-02-11T18:25:19.334Z,101648.63
2023-02-11T18:27:46.531Z,101659.25
2023-02-11T18:30:16.089Z,101649.69
2023-02-11T18:32:43.286Z,101646.97
2023-02-11T18:35:14.719Z,101655.00
2023-02-11T18:37:42.723Z,101647.09
2023-02-11T18:40:11.291Z,101642.38
2023-02-11T18:42:38.843Z,101643.22
2023-02-11T18:45:06.849Z,101643.53
2023-02-11T18:47:34.012Z,101645.44
2023-02-11T18:50:01.184Z,101657.22
2023-02-11T18:52:30.512Z,101647.38
2023-02-11T18:54:57.812Z,101643.72
2023-02-11T18:57:25.129Z,101646.91
2023-02-11T18:59:52.353Z,101646.81
2023-02-11T19:02:19.607Z,101657.31
2023-02-11T19:04:46.838Z,101658.09
2023-02-11T19:07:14.066Z,101659.84
2023-02-11T19:09:42.698Z,101662.38
2023-02-11T19:12:09.912Z,101666.03
2023-02-11T19:14:37.236Z,101667.19
2023-02-11T19:17:06.753Z,101665.66
2023-02-11T19:19:35.813Z,101665.66
2023-02-11T19:22:04.201Z,101681.66
2023-02-11T19:24:31.875Z,101684.94
2023-02-11T19:27:01.860Z,101689.28
2023-02-11T19:29:30.192Z,101691.13
2023-02-11T19:31:57.436Z,101688.53
2023-02-11T19:34:25.039Z,101690.66
2023-02-11T19:36:52.358Z,101692.97
2023-02-11T19:39:20.034Z,101690.16
2023-02-11T19:41:47.247Z,101688.13
2023-02-11T19:44:15.979Z,101691.81
2023-02-11T19:46:43.754Z,101694.25
2023-02-11T19:49:14.105Z,101693.34
2023-02-11T19:51:41.392Z,101701.56
2023-02-11T19:54:08.593Z,101705.06
2023-02-11T19:56:35.753Z,101709.75
2023-02-11T19:59:03.962Z,101700.88
2023-02-11T20:01:32.563Z,101690.16
2023-02-11T20:03:59.751Z,101692.88
2023-02-11T20:06:29.179Z,101683.78
2023-02-11T20:08:58.808Z,101687.16
2023-02-11T20:11:28.374Z,101679.94
2023-02-11T20:13:55.552Z,101678.94
2023-02-11T20:16:36.853Z,101676.25
2023-02-11T20:19:12.893Z,101681.66
2023-02-11T20:21:40.368Z,101683.59
2023-02-11T20:24:07.627Z,101693.63
2023-02-11T20:26:34.824Z,101688.53
2023-02-11T20:29:02.471Z,101700.19
2023-02-11T20:31:30.757Z,101692.97
2023-02-11T20:33:58.234Z,101693.22
2023-02-11T20:36:29.156Z,101695.00
2023-02-11T20:38:56.756Z,101685.34
2023-02-11T20:41:25.968Z,101693.34
2023-02-11T20:43:54.871Z,101700.31
2023-02-11T20:46:25.093Z,101713.03
2023-02-11T20:48:54.188Z,101701.06
2023-02-11T20:51:28.853Z,101712.56
2023-02-11T20:53:56.481Z,101712.78
2023-02-11T20:56:25.870Z,101723.59
2023-02-11T20:58:53.336Z,101729.84
2023-02-11T21:01:22.627Z,101730.72
2023-02-11T21:03:52.725Z,101716.31
2023-02-11T21:06:20.994Z,101726.28
2023-02-11T21:08:49.555Z,101733.63
2023-02-11T21:11:17.170Z,101742.09
2023-02-11T21:13:44.370Z,101741.72
2023-02-11T21:16:14.723Z,101742.78
2023-02-11T21:18:42.022Z,101757.19
2023-02-11T21:21:09.406Z,101752.72
2023-02-11T21:23:36.571Z,101760.94
2023-02-11T21:26:05.887Z,101753.09
2023-02-11T21:28:33.876Z,101742.38
2023-02-11T21:31:01.787Z,101748.84
2023-02-11T21:33:30.218Z,101751.63
2023-02-11T21:35:58.792Z,101750.16
2023-02-11T21:38:27.027Z,101732.28
2023-02-11T21:40:54.902Z,101734.03
2023-02-11T21:43:23.418Z,101720.63
2023-02-11T21:45:51.370Z,101719.75
2023-02-11T21:48:18.888Z,101728.81
2023-02-11T21:50:47.311Z,101727.28
2023-02-11T21:53:14.824Z,101728.66
2023-02-11T21:55:42.243Z,101729.81
2023-02-11T21:58:10.668Z,101734.38
2023-02-11T22:00:39.788Z,101731.66
2023-02-11T22:03:06.945Z,101734.78
2023-02-11T22:05:34.237Z,101732.09
2023-02-11T22:08:01.381Z,101729.31
2023-02-11T22:10:28.533Z,101734.72
2023-02-11T22:12:55.696Z,101746.19
2023-02-11T22:15:22.909Z,101743.69
2023-02-11T22:17:51.471Z,101734.88
2023-02-11T22:20:18.812Z,101738.56
2023-02-11T22:22:45.961Z,101736.81
2023-02-11T22:25:13.113Z,101746.50
2023-02-11T22:27:40.301Z,101747.38
2023-02-11T22:30:08.819Z,101745.53
2023-02-11T22:32:36.133Z,101753.38
2023-02-11T22:35:05.049Z,101749.88
2023-02-11T22:37:32.204Z,101748.81
2023-02-11T22:39:59.441Z,101762.06
2023-02-11T22:42:26.590Z,101766.69
2023-02-11T22:44:53.768Z,101761.47
2023-02-11T22:47:20.930Z,101758.06
2023-02-11T22:49:48.052Z,101756.06
2023-02-11T22:52:16.737Z,101763.22
2023-02-11T22:54:44.170Z,101758.56
2023-02-11T22:57:11.335Z,101769.28
2023-02-11T22:59:38.491Z,101771.41
2023-02-11T23:02:05.831Z,101765.31
2023-02-11T23:04:33.050Z,101775.25
2023-02-11T23:07:00.229Z,101778.81
2023-02-11T23:09:28.782Z,101770.00
2023-02-11T23:11:55.916Z,101775.31
2023-02-11T23:14:23.074Z,101782.38
2023-02-11T23:16:50.660Z,101778.91
2023-02-11T23:19:17.893Z,101775.69
2023-02-11T23:21:45.067Z,101778.56
2023-02-11T23:24:14.244Z,101779.16
2023-02-11T23:26:43.309Z,101791.53
2023-02-11T23:29:11.723Z,101792.41
2023-02-11T23:31:41.857Z,101791.75
2023-02-11T23:34:09.866Z,101783.34
2023-02-11T23:36:37.478Z,101781.63
2023-02-11T23:39:04.976Z,101781.63
2023-02-11T23:41:32.169Z,101784.31
2023-02-11T23:44:00.650Z,101785.88
2023-02-11T23:46:28.146Z,101783.94
2023-02-11T23:48:56.015Z,101787.78
2023-02-11T23:51:24.003Z,101797.81
2023-02-11T23:53:52.101Z,101793.63
2023-02-11T23:56:24.612Z,101795.38
2023-02-11T23:58:53.473Z,101795.56
